MAS754 WMKK-VDPP
Flight info
| Callsign | MAS754 |
|---|---|
| Flight time | 1h 31m |
| Altitude | 37000 |
| Route | PIBOS1D PIBOS R208 IGARI/K0870F370 M765 BITOD/K0876F360 M753 PQU/K0870F370 M753 OSOTA OUDOM3A |
| Aircraft | B738/M-SDE2E3FGHIRWXY/LB1 |
Departure
| Time | 2026-04-26 11:45 |
|---|---|
| Airport | Kuala Lumpur International Airport (WMKK) |
Arrival
| Time | 2026-04-26 13:17 |
|---|---|
| Airport | Phnom Penh International Airport (VDPP) |
| Time | Latitude | Longitude | Altitude | Speed | Heading |
|---|---|---|---|---|---|
| 2026-04-26 11:27 | 2.74537 | 101.71567 | 68 ft | 0 kts | 327° |
| 2026-04-26 11:42 | 2.74551 | 101.71585 | 68 ft | 4 kts | 98° |
| 2026-04-26 11:43 | 2.74519 | 101.71606 | 69 ft | 8 kts | 155° |
| 2026-04-26 11:43 | 2.74469 | 101.71631 | 70 ft | 8 kts | 141° |
| 2026-04-26 11:43 | 2.74471 | 101.71653 | 72 ft | 8 kts | 53° |
| 2026-04-26 11:43 | 2.74542 | 101.71749 | 69 ft | 26 kts | 55° |
| 2026-04-26 11:44 | 2.74637 | 101.71888 | 65 ft | 21 kts | 56° |
| 2026-04-26 11:44 | 2.74717 | 101.72010 | 71 ft | 21 kts | 57° |
| 2026-04-26 11:44 | 2.74794 | 101.72129 | 74 ft | 20 kts | 57° |
| 2026-04-26 11:44 | 2.74913 | 101.72153 | 77 ft | 25 kts | 331° |
| 2026-04-26 11:45 | 2.75264 | 101.71919 | 69 ft | 97 kts | 326° |
| 2026-04-26 11:45 | 2.76014 | 101.71424 | 67 ft | 157 kts | 327° |
| 2026-04-26 11:45 | 2.76982 | 101.70770 | 491 ft | 174 kts | 326° |
| 2026-04-26 11:45 | 2.78018 | 101.70060 | 1074 ft | 184 kts | 327° |
| 2026-04-26 11:46 | 2.79076 | 101.69356 | 1887 ft | 183 kts | 328° |
| 2026-04-26 11:46 | 2.80266 | 101.68738 | 2307 ft | 206 kts | 346° |
| 2026-04-26 11:46 | 2.81716 | 101.68288 | 2562 ft | 232 kts | 343° |
| 2026-04-26 11:46 | 2.83332 | 101.67720 | 2763 ft | 260 kts | 342° |
| 2026-04-26 11:47 | 2.85070 | 101.67092 | 3432 ft | 267 kts | 342° |
| 2026-04-26 11:47 | 2.86825 | 101.66456 | 4263 ft | 269 kts | 342° |
| 2026-04-26 11:47 | 2.88591 | 101.65816 | 5093 ft | 271 kts | 342° |
| 2026-04-26 11:47 | 2.90387 | 101.65247 | 5891 ft | 271 kts | 354° |
| 2026-04-26 11:48 | 2.92254 | 101.65387 | 6587 ft | 271 kts | 19° |
| 2026-04-26 11:48 | 2.93971 | 101.66189 | 7284 ft | 273 kts | 30° |
| 2026-04-26 11:48 | 2.95608 | 101.67140 | 7972 ft | 277 kts | 32° |
| 2026-04-26 11:48 | 2.97272 | 101.68134 | 8672 ft | 281 kts | 32° |
| 2026-04-26 11:49 | 2.98965 | 101.69142 | 9393 ft | 284 kts | 32° |
| 2026-04-26 11:49 | 3.00679 | 101.70156 | 10079 ft | 288 kts | 32° |
| 2026-04-26 11:49 | 3.02454 | 101.71200 | 10422 ft | 305 kts | 32° |
| 2026-04-26 11:49 | 3.04350 | 101.72310 | 10578 ft | 327 kts | 32° |
| 2026-04-26 11:50 | 3.06374 | 101.73491 | 10714 ft | 346 kts | 32° |
| 2026-04-26 11:50 | 3.08513 | 101.74735 | 10850 ft | 364 kts | 32° |
| 2026-04-26 11:50 | 3.10749 | 101.76034 | 11110 ft | 376 kts | 31° |
| 2026-04-26 11:50 | 3.13004 | 101.77343 | 11555 ft | 380 kts | 31° |
| 2026-04-26 11:51 | 3.15299 | 101.78677 | 12115 ft | 382 kts | 32° |
| 2026-04-26 11:51 | 3.17401 | 101.80298 | 12588 ft | 383 kts | 49° |
| 2026-04-26 11:51 | 3.18982 | 101.82446 | 13163 ft | 383 kts | 57° |
| 2026-04-26 11:51 | 3.20455 | 101.84679 | 13702 ft | 386 kts | 58° |
| 2026-04-26 11:52 | 3.21938 | 101.86941 | 14140 ft | 390 kts | 58° |
| 2026-04-26 11:52 | 3.23448 | 101.89213 | 14638 ft | 393 kts | 57° |
| 2026-04-26 11:52 | 3.24967 | 101.91467 | 15150 ft | 395 kts | 57° |
| 2026-04-26 11:52 | 3.26514 | 101.93751 | 15646 ft | 398 kts | 57° |
| 2026-04-26 11:53 | 3.28119 | 101.96027 | 16113 ft | 401 kts | 55° |
| 2026-04-26 11:53 | 3.29804 | 101.98269 | 16574 ft | 404 kts | 54° |
| 2026-04-26 11:53 | 3.31502 | 102.00513 | 17012 ft | 406 kts | 54° |
| 2026-04-26 11:54 | 3.34982 | 102.05038 | 17831 ft | 414 kts | 47° |
| 2026-04-26 11:54 | 3.37275 | 102.06800 | 18244 ft | 420 kts | 32° |
| 2026-04-26 11:54 | 3.39803 | 102.08198 | 18638 ft | 421 kts | 31° |
| 2026-04-26 11:54 | 3.42370 | 102.09624 | 18986 ft | 423 kts | 31° |
| 2026-04-26 11:55 | 3.44956 | 102.11078 | 19331 ft | 426 kts | 30° |
| 2026-04-26 11:55 | 3.47585 | 102.12467 | 19670 ft | 429 kts | 29° |
| 2026-04-26 11:55 | 3.50257 | 102.13823 | 20009 ft | 431 kts | 28° |
| 2026-04-26 11:55 | 3.52943 | 102.15170 | 20343 ft | 433 kts | 28° |
| 2026-04-26 11:56 | 3.55643 | 102.16526 | 20666 ft | 435 kts | 28° |
| 2026-04-26 11:56 | 3.58352 | 102.17894 | 20991 ft | 437 kts | 28° |
| 2026-04-26 11:56 | 3.61061 | 102.19269 | 21297 ft | 439 kts | 28° |
| 2026-04-26 11:56 | 3.63788 | 102.20660 | 21603 ft | 441 kts | 28° |
| 2026-04-26 11:57 | 3.66529 | 102.22061 | 21876 ft | 443 kts | 28° |
| 2026-04-26 11:57 | 3.69274 | 102.23466 | 22184 ft | 444 kts | 28° |
| 2026-04-26 11:57 | 3.72037 | 102.24881 | 22479 ft | 446 kts | 28° |
| 2026-04-26 11:57 | 3.74809 | 102.26301 | 22749 ft | 448 kts | 28° |
| 2026-04-26 11:58 | 3.77549 | 102.27706 | 23010 ft | 450 kts | 28° |
| 2026-04-26 11:58 | 3.80375 | 102.29154 | 23258 ft | 452 kts | 28° |
| 2026-04-26 11:58 | 3.83145 | 102.30573 | 23491 ft | 453 kts | 28° |
| 2026-04-26 11:58 | 3.85954 | 102.32012 | 23710 ft | 455 kts | 28° |
| 2026-04-26 11:59 | 3.88781 | 102.33460 | 23916 ft | 457 kts | 28° |
| 2026-04-26 11:59 | 3.91619 | 102.34915 | 24119 ft | 458 kts | 28° |
| 2026-04-26 11:59 | 3.94469 | 102.36375 | 24316 ft | 460 kts | 28° |
| 2026-04-26 11:59 | 3.97320 | 102.37836 | 24512 ft | 461 kts | 28° |
| 2026-04-26 12:00 | 4.00179 | 102.39302 | 24705 ft | 463 kts | 28° |
| 2026-04-26 12:00 | 4.03054 | 102.40775 | 24893 ft | 464 kts | 28° |
| 2026-04-26 12:00 | 4.05933 | 102.42251 | 25086 ft | 465 kts | 28° |
| 2026-04-26 12:00 | 4.08819 | 102.43731 | 25262 ft | 467 kts | 28° |
| 2026-04-26 12:01 | 4.11717 | 102.45216 | 25436 ft | 469 kts | 28° |
| 2026-04-26 12:01 | 4.14628 | 102.46709 | 25619 ft | 470 kts | 28° |
| 2026-04-26 12:01 | 4.17541 | 102.48203 | 25799 ft | 471 kts | 28° |
| 2026-04-26 12:01 | 4.20464 | 102.49702 | 25972 ft | 472 kts | 27° |
| 2026-04-26 12:02 | 4.23357 | 102.51185 | 26144 ft | 474 kts | 27° |
| 2026-04-26 12:02 | 4.26298 | 102.52694 | 26308 ft | 475 kts | 28° |
| 2026-04-26 12:02 | 4.29241 | 102.54204 | 26477 ft | 476 kts | 27° |
| 2026-04-26 12:02 | 4.32193 | 102.55718 | 26628 ft | 478 kts | 27° |
| 2026-04-26 12:03 | 4.35163 | 102.57242 | 26778 ft | 479 kts | 27° |
| 2026-04-26 12:03 | 4.38133 | 102.58766 | 26944 ft | 480 kts | 27° |
| 2026-04-26 12:03 | 4.41115 | 102.60296 | 27112 ft | 481 kts | 27° |
| 2026-04-26 12:03 | 4.44098 | 102.61827 | 27260 ft | 482 kts | 27° |
| 2026-04-26 12:04 | 4.47084 | 102.63360 | 27393 ft | 484 kts | 27° |
| 2026-04-26 12:04 | 4.50083 | 102.64900 | 27545 ft | 485 kts | 27° |
| 2026-04-26 12:04 | 4.53088 | 102.66443 | 27720 ft | 485 kts | 27° |
| 2026-04-26 12:04 | 4.56085 | 102.67982 | 27957 ft | 484 kts | 27° |
| 2026-04-26 12:05 | 4.59078 | 102.69518 | 28205 ft | 483 kts | 27° |
| 2026-04-26 12:05 | 4.62076 | 102.71045 | 28437 ft | 482 kts | 26° |
| 2026-04-26 12:05 | 4.65078 | 102.72538 | 28672 ft | 481 kts | 26° |
| 2026-04-26 12:05 | 4.68086 | 102.74016 | 28916 ft | 481 kts | 26° |
| 2026-04-26 12:06 | 4.71091 | 102.75491 | 29161 ft | 480 kts | 26° |
| 2026-04-26 12:06 | 4.74094 | 102.76970 | 29406 ft | 480 kts | 26° |
| 2026-04-26 12:06 | 4.77087 | 102.78448 | 29666 ft | 479 kts | 26° |
| 2026-04-26 12:06 | 4.80031 | 102.79907 | 29943 ft | 478 kts | 26° |
| 2026-04-26 12:07 | 4.83010 | 102.81382 | 30180 ft | 477 kts | 26° |
| 2026-04-26 12:07 | 4.85983 | 102.82855 | 30412 ft | 477 kts | 26° |
| 2026-04-26 12:07 | 4.88950 | 102.84333 | 30639 ft | 476 kts | 26° |
| 2026-04-26 12:07 | 4.91914 | 102.85826 | 30879 ft | 475 kts | 26° |
| 2026-04-26 12:08 | 4.94869 | 102.87322 | 31142 ft | 474 kts | 26° |
| 2026-04-26 12:08 | 4.97811 | 102.88814 | 31383 ft | 474 kts | 26° |
| 2026-04-26 12:08 | 5.00759 | 102.90308 | 31601 ft | 474 kts | 26° |
| 2026-04-26 12:08 | 5.03703 | 102.91799 | 31836 ft | 474 kts | 26° |
| 2026-04-26 12:09 | 5.06655 | 102.93292 | 32080 ft | 474 kts | 26° |
| 2026-04-26 12:09 | 5.09593 | 102.94778 | 32350 ft | 473 kts | 26° |
| 2026-04-26 12:09 | 5.12536 | 102.96266 | 32591 ft | 473 kts | 26° |
| 2026-04-26 12:09 | 5.15436 | 102.97732 | 32815 ft | 473 kts | 26° |
| 2026-04-26 12:10 | 5.18382 | 102.99222 | 33045 ft | 473 kts | 26° |
| 2026-04-26 12:10 | 5.21320 | 103.00708 | 33283 ft | 473 kts | 26° |
| 2026-04-26 12:10 | 5.24260 | 103.02195 | 33515 ft | 473 kts | 26° |
| 2026-04-26 12:10 | 5.27206 | 103.03686 | 33761 ft | 473 kts | 26° |
| 2026-04-26 12:11 | 5.30139 | 103.05170 | 33984 ft | 473 kts | 26° |
| 2026-04-26 12:11 | 5.33081 | 103.06659 | 34199 ft | 473 kts | 26° |
| 2026-04-26 12:11 | 5.36024 | 103.08134 | 34431 ft | 473 kts | 25° |
| 2026-04-26 12:11 | 5.39027 | 103.09382 | 34620 ft | 473 kts | 20° |
| 2026-04-26 12:12 | 5.42121 | 103.10500 | 34813 ft | 474 kts | 19° |
| 2026-04-26 12:12 | 5.45241 | 103.11575 | 35021 ft | 474 kts | 19° |
| 2026-04-26 12:12 | 5.48362 | 103.12649 | 35212 ft | 474 kts | 19° |
| 2026-04-26 12:12 | 5.50470 | 103.13384 | 35341 ft | 474 kts | 19° |
| 2026-04-26 12:13 | 5.54602 | 103.14848 | 35598 ft | 475 kts | 20° |
| 2026-04-26 12:13 | 5.57710 | 103.15964 | 35794 ft | 475 kts | 20° |
| 2026-04-26 12:13 | 5.60822 | 103.17088 | 35987 ft | 475 kts | 20° |
| 2026-04-26 12:13 | 5.63936 | 103.18214 | 36187 ft | 475 kts | 20° |
| 2026-04-26 12:14 | 5.67044 | 103.19338 | 36400 ft | 475 kts | 20° |
| 2026-04-26 12:14 | 5.70157 | 103.20462 | 36610 ft | 475 kts | 20° |
| 2026-04-26 12:14 | 5.73270 | 103.21586 | 36809 ft | 474 kts | 20° |
| 2026-04-26 12:15 | 5.79485 | 103.23718 | 36857 ft | 476 kts | 18° |
| 2026-04-26 12:15 | 5.85837 | 103.25615 | 36861 ft | 476 kts | 17° |
| 2026-04-26 12:16 | 5.92192 | 103.27490 | 36861 ft | 476 kts | 17° |
| 2026-04-26 12:16 | 5.98533 | 103.29402 | 36862 ft | 475 kts | 17° |
| 2026-04-26 12:17 | 6.04865 | 103.31334 | 36863 ft | 475 kts | 17° |
| 2026-04-26 12:17 | 6.11191 | 103.33269 | 36865 ft | 475 kts | 17° |
| 2026-04-26 12:18 | 6.17519 | 103.35239 | 36864 ft | 476 kts | 18° |
| 2026-04-26 12:18 | 6.23857 | 103.37228 | 36862 ft | 477 kts | 18° |
| 2026-04-26 12:19 | 6.30195 | 103.39215 | 36863 ft | 477 kts | 18° |
| 2026-04-26 12:19 | 6.36535 | 103.41201 | 36865 ft | 477 kts | 18° |
| 2026-04-26 12:20 | 6.42849 | 103.43177 | 36865 ft | 478 kts | 18° |
| 2026-04-26 12:20 | 6.49212 | 103.45169 | 36862 ft | 478 kts | 18° |
| 2026-04-26 12:21 | 6.55564 | 103.47158 | 36865 ft | 478 kts | 18° |
| 2026-04-26 12:21 | 6.61874 | 103.49134 | 36863 ft | 478 kts | 18° |
| 2026-04-26 12:22 | 6.68223 | 103.51124 | 36864 ft | 478 kts | 18° |
| 2026-04-26 12:22 | 6.74572 | 103.53113 | 36867 ft | 478 kts | 18° |
| 2026-04-26 12:23 | 6.80920 | 103.55103 | 36864 ft | 477 kts | 18° |
| 2026-04-26 12:23 | 6.87266 | 103.57093 | 36864 ft | 477 kts | 18° |
| 2026-04-26 12:24 | 6.93621 | 103.59087 | 36870 ft | 477 kts | 18° |
| 2026-04-26 12:24 | 6.99961 | 103.61076 | 36869 ft | 477 kts | 18° |
| 2026-04-26 12:25 | 7.09421 | 103.64045 | 36870 ft | 476 kts | 17° |
| 2026-04-26 12:25 | 7.15751 | 103.66033 | 36866 ft | 475 kts | 17° |
| 2026-04-26 12:26 | 7.22062 | 103.68015 | 36868 ft | 474 kts | 17° |
| 2026-04-26 12:26 | 7.28343 | 103.69988 | 36867 ft | 472 kts | 17° |
| 2026-04-26 12:27 | 7.34569 | 103.71944 | 36868 ft | 470 kts | 17° |
| 2026-04-26 12:27 | 7.40811 | 103.73907 | 36866 ft | 469 kts | 17° |
| 2026-04-26 12:28 | 7.47030 | 103.75863 | 36867 ft | 468 kts | 17° |
| 2026-04-26 12:28 | 7.53245 | 103.77817 | 36873 ft | 466 kts | 17° |
| 2026-04-26 12:29 | 7.59446 | 103.79768 | 36873 ft | 467 kts | 17° |
| 2026-04-26 12:30 | 7.67708 | 103.82369 | 36870 ft | 467 kts | 17° |
| 2026-04-26 12:30 | 7.73904 | 103.84320 | 36869 ft | 466 kts | 17° |
| 2026-04-26 12:31 | 7.83153 | 103.87233 | 36869 ft | 465 kts | 17° |
| 2026-04-26 12:31 | 7.89338 | 103.89182 | 36874 ft | 465 kts | 17° |
| 2026-04-26 12:32 | 7.95508 | 103.91127 | 36868 ft | 464 kts | 17° |
| 2026-04-26 12:33 | 8.04761 | 103.94045 | 36870 ft | 464 kts | 17° |
| 2026-04-26 12:33 | 8.10933 | 103.95992 | 36872 ft | 464 kts | 17° |
| 2026-04-26 12:34 | 8.17101 | 103.97938 | 36869 ft | 464 kts | 17° |
| 2026-04-26 12:34 | 8.23261 | 103.99883 | 36870 ft | 464 kts | 17° |
| 2026-04-26 12:35 | 8.29384 | 104.01816 | 36869 ft | 464 kts | 17° |
| 2026-04-26 12:35 | 8.35551 | 104.03765 | 36870 ft | 464 kts | 17° |
| 2026-04-26 12:36 | 8.41709 | 104.05711 | 36867 ft | 464 kts | 17° |
| 2026-04-26 12:36 | 8.47876 | 104.07636 | 36866 ft | 464 kts | 13° |
| 2026-04-26 12:37 | 8.54253 | 104.08358 | 36869 ft | 462 kts | 358° |
| 2026-04-26 12:37 | 8.60685 | 104.08143 | 36864 ft | 462 kts | 357° |
| 2026-04-26 12:38 | 8.67120 | 104.07905 | 36870 ft | 462 kts | 358° |
| 2026-04-26 12:38 | 8.73560 | 104.07706 | 36866 ft | 463 kts | 358° |
| 2026-04-26 12:39 | 8.79965 | 104.07533 | 36869 ft | 463 kts | 358° |
| 2026-04-26 12:39 | 8.86407 | 104.07365 | 36868 ft | 463 kts | 358° |
| 2026-04-26 12:40 | 8.92859 | 104.07194 | 36871 ft | 463 kts | 358° |
| 2026-04-26 12:40 | 8.99300 | 104.07024 | 36870 ft | 463 kts | 358° |
| 2026-04-26 12:41 | 9.05745 | 104.06852 | 36867 ft | 463 kts | 358° |
| 2026-04-26 12:41 | 9.12193 | 104.06680 | 36869 ft | 463 kts | 358° |
| 2026-04-26 12:42 | 9.18644 | 104.06509 | 36867 ft | 464 kts | 358° |
| 2026-04-26 12:42 | 9.25097 | 104.06337 | 36870 ft | 464 kts | 358° |
| 2026-04-26 12:43 | 9.31549 | 104.06165 | 36869 ft | 464 kts | 358° |
| 2026-04-26 12:43 | 9.38014 | 104.05992 | 36866 ft | 464 kts | 358° |
| 2026-04-26 12:44 | 9.44433 | 104.05821 | 36867 ft | 464 kts | 358° |
| 2026-04-26 12:44 | 9.50909 | 104.05649 | 36863 ft | 465 kts | 358° |
| 2026-04-26 12:45 | 9.57370 | 104.05476 | 36864 ft | 465 kts | 358° |
| 2026-04-26 12:45 | 9.63835 | 104.05304 | 36860 ft | 465 kts | 358° |
| 2026-04-26 12:46 | 9.70305 | 104.05131 | 36861 ft | 464 kts | 358° |
| 2026-04-26 12:46 | 9.76783 | 104.04958 | 36605 ft | 469 kts | 358° |
| 2026-04-26 12:46 | 9.80054 | 104.04870 | 36072 ft | 468 kts | 358° |
| 2026-04-26 12:47 | 9.83259 | 104.04784 | 35407 ft | 467 kts | 358° |
| 2026-04-26 12:47 | 9.86515 | 104.04697 | 34708 ft | 468 kts | 358° |
| 2026-04-26 12:47 | 9.89781 | 104.04610 | 33961 ft | 470 kts | 359° |
| 2026-04-26 12:47 | 9.93049 | 104.04523 | 33127 ft | 472 kts | 359° |
| 2026-04-26 12:48 | 9.96346 | 104.04435 | 32334 ft | 472 kts | 359° |
| 2026-04-26 12:48 | 9.99633 | 104.04347 | 31529 ft | 472 kts | 359° |
| 2026-04-26 12:48 | 10.02924 | 104.04259 | 30707 ft | 473 kts | 359° |
| 2026-04-26 12:48 | 10.06222 | 104.04170 | 29811 ft | 474 kts | 359° |
| 2026-04-26 12:49 | 10.09525 | 104.04082 | 28782 ft | 476 kts | 359° |
| 2026-04-26 12:49 | 10.12834 | 104.04098 | 27765 ft | 476 kts | 5° |
| 2026-04-26 12:49 | 10.16095 | 104.04629 | 26780 ft | 476 kts | 14° |
| 2026-04-26 12:49 | 10.19256 | 104.05616 | 25965 ft | 473 kts | 21° |
| 2026-04-26 12:50 | 10.22206 | 104.07035 | 25264 ft | 467 kts | 30° |
| 2026-04-26 12:50 | 10.25007 | 104.08677 | 24532 ft | 463 kts | 31° |
| 2026-04-26 12:50 | 10.27770 | 104.10330 | 23797 ft | 460 kts | 31° |
| 2026-04-26 12:50 | 10.30526 | 104.11975 | 22988 ft | 457 kts | 31° |
| 2026-04-26 12:51 | 10.33262 | 104.13593 | 22203 ft | 453 kts | 30° |
| 2026-04-26 12:51 | 10.35975 | 104.15182 | 21466 ft | 448 kts | 30° |
| 2026-04-26 12:51 | 10.38633 | 104.16730 | 20760 ft | 444 kts | 30° |
| 2026-04-26 12:51 | 10.41301 | 104.18281 | 20043 ft | 440 kts | 30° |
| 2026-04-26 12:52 | 10.43958 | 104.19824 | 19320 ft | 437 kts | 30° |
| 2026-04-26 12:52 | 10.46588 | 104.21352 | 18606 ft | 434 kts | 30° |
| 2026-04-26 12:52 | 10.49045 | 104.22781 | 17904 ft | 432 kts | 30° |
| 2026-04-26 12:52 | 10.51492 | 104.24204 | 17173 ft | 429 kts | 30° |
| 2026-04-26 12:53 | 10.54069 | 104.25703 | 16467 ft | 425 kts | 30° |
| 2026-04-26 12:53 | 10.56647 | 104.27143 | 15721 ft | 422 kts | 27° |
| 2026-04-26 12:53 | 10.59285 | 104.28431 | 14988 ft | 419 kts | 25° |
| 2026-04-26 12:53 | 10.61903 | 104.29632 | 14304 ft | 416 kts | 25° |
| 2026-04-26 12:54 | 10.64568 | 104.30838 | 13603 ft | 412 kts | 25° |
| 2026-04-26 12:54 | 10.67140 | 104.32010 | 12870 ft | 409 kts | 25° |
| 2026-04-26 12:54 | 10.69749 | 104.33214 | 12177 ft | 404 kts | 25° |
| 2026-04-26 12:54 | 10.72251 | 104.34379 | 11530 ft | 399 kts | 25° |
| 2026-04-26 12:55 | 10.74756 | 104.35554 | 11072 ft | 389 kts | 25° |
| 2026-04-26 12:55 | 10.77161 | 104.36685 | 10912 ft | 373 kts | 25° |
| 2026-04-26 12:55 | 10.79470 | 104.37772 | 10745 ft | 358 kts | 25° |
| 2026-04-26 12:55 | 10.81692 | 104.38818 | 10601 ft | 345 kts | 25° |
| 2026-04-26 12:56 | 10.83831 | 104.39826 | 10450 ft | 333 kts | 25° |
| 2026-04-26 12:56 | 10.85896 | 104.40799 | 10314 ft | 321 kts | 26° |
| 2026-04-26 12:56 | 10.87889 | 104.41739 | 10182 ft | 311 kts | 26° |
| 2026-04-26 12:56 | 10.89825 | 104.42651 | 10057 ft | 301 kts | 26° |
| 2026-04-26 12:57 | 10.91701 | 104.43536 | 9926 ft | 292 kts | 26° |
| 2026-04-26 12:57 | 10.93518 | 104.44392 | 9810 ft | 284 kts | 26° |
| 2026-04-26 12:57 | 10.95303 | 104.45233 | 9514 ft | 282 kts | 26° |
| 2026-04-26 12:58 | 10.98682 | 104.47135 | 8988 ft | 274 kts | 46° |
| 2026-04-26 12:58 | 10.99784 | 104.48649 | 8927 ft | 268 kts | 59° |
| 2026-04-26 12:58 | 11.00730 | 104.50275 | 8837 ft | 267 kts | 60° |
| 2026-04-26 12:58 | 11.01678 | 104.51944 | 8751 ft | 271 kts | 60° |
| 2026-04-26 12:59 | 11.02618 | 104.53590 | 8687 ft | 275 kts | 60° |
| 2026-04-26 12:59 | 11.03589 | 104.55278 | 8601 ft | 277 kts | 60° |
| 2026-04-26 12:59 | 11.04565 | 104.56964 | 8498 ft | 275 kts | 59° |
| 2026-04-26 12:59 | 11.05539 | 104.58638 | 8421 ft | 274 kts | 59° |
| 2026-04-26 13:00 | 11.06509 | 104.60301 | 8344 ft | 272 kts | 59° |
| 2026-04-26 13:00 | 11.07475 | 104.61956 | 8267 ft | 271 kts | 59° |
| 2026-04-26 13:00 | 11.08440 | 104.63609 | 8171 ft | 271 kts | 59° |
| 2026-04-26 13:00 | 11.09392 | 104.65239 | 8122 ft | 270 kts | 59° |
| 2026-04-26 13:01 | 11.10352 | 104.66883 | 8029 ft | 270 kts | 59° |
| 2026-04-26 13:01 | 11.11313 | 104.68530 | 7954 ft | 270 kts | 59° |
| 2026-04-26 13:01 | 11.12273 | 104.70176 | 7876 ft | 271 kts | 59° |
| 2026-04-26 13:01 | 11.13235 | 104.71824 | 7803 ft | 271 kts | 59° |
| 2026-04-26 13:02 | 11.14198 | 104.73477 | 7723 ft | 272 kts | 59° |
| 2026-04-26 13:02 | 11.15163 | 104.75131 | 7647 ft | 272 kts | 59° |
| 2026-04-26 13:02 | 11.16130 | 104.76790 | 7564 ft | 273 kts | 59° |
| 2026-04-26 13:02 | 11.17098 | 104.78450 | 7480 ft | 273 kts | 59° |
| 2026-04-26 13:03 | 11.18069 | 104.80118 | 7399 ft | 273 kts | 59° |
| 2026-04-26 13:03 | 11.19039 | 104.81782 | 7319 ft | 273 kts | 59° |
| 2026-04-26 13:03 | 11.20008 | 104.83446 | 7239 ft | 273 kts | 59° |
| 2026-04-26 13:03 | 11.20979 | 104.85112 | 7153 ft | 273 kts | 59° |
| 2026-04-26 13:04 | 11.21947 | 104.86774 | 7078 ft | 272 kts | 59° |
| 2026-04-26 13:04 | 11.22913 | 104.88432 | 6995 ft | 272 kts | 59° |
| 2026-04-26 13:04 | 11.23878 | 104.90089 | 6919 ft | 272 kts | 59° |
| 2026-04-26 13:04 | 11.24841 | 104.91743 | 6827 ft | 271 kts | 59° |
| 2026-04-26 13:05 | 11.25791 | 104.93374 | 6749 ft | 271 kts | 59° |
| 2026-04-26 13:05 | 11.26763 | 104.95046 | 6663 ft | 270 kts | 59° |
| 2026-04-26 13:05 | 11.27710 | 104.96672 | 6585 ft | 270 kts | 59° |
| 2026-04-26 13:05 | 11.28666 | 104.98316 | 6494 ft | 270 kts | 59° |
| 2026-04-26 13:06 | 11.29625 | 104.99965 | 6418 ft | 270 kts | 59° |
| 2026-04-26 13:06 | 11.30581 | 105.01609 | 6335 ft | 269 kts | 59° |
| 2026-04-26 13:06 | 11.31537 | 105.03253 | 6246 ft | 269 kts | 59° |
| 2026-04-26 13:06 | 11.32490 | 105.04892 | 6161 ft | 268 kts | 59° |
| 2026-04-26 13:07 | 11.33478 | 105.06503 | 6068 ft | 268 kts | 51° |
| 2026-04-26 13:07 | 11.34952 | 105.07643 | 5953 ft | 270 kts | 22° |
| 2026-04-26 13:07 | 11.36782 | 105.07968 | 5761 ft | 275 kts | 358° |
| 2026-04-26 13:07 | 11.38706 | 105.07686 | 5571 ft | 277 kts | 350° |
| 2026-04-26 13:08 | 11.40564 | 105.07305 | 5380 ft | 272 kts | 349° |
| 2026-04-26 13:08 | 11.42396 | 105.06918 | 5232 ft | 262 kts | 349° |
| 2026-04-26 13:08 | 11.44126 | 105.06556 | 5148 ft | 246 kts | 349° |
| 2026-04-26 13:08 | 11.45735 | 105.06225 | 5143 ft | 225 kts | 349° |
| 2026-04-26 13:09 | 11.47227 | 105.05923 | 5025 ft | 210 kts | 349° |
| 2026-04-26 13:09 | 11.48608 | 105.05645 | 4895 ft | 194 kts | 349° |
| 2026-04-26 13:09 | 11.49909 | 105.05385 | 4628 ft | 190 kts | 349° |
| 2026-04-26 13:09 | 11.51235 | 105.05122 | 4098 ft | 199 kts | 349° |
| 2026-04-26 13:10 | 11.52601 | 105.04851 | 3678 ft | 200 kts | 349° |
| 2026-04-26 13:10 | 11.53953 | 105.04583 | 3480 ft | 195 kts | 349° |
| 2026-04-26 13:10 | 11.55300 | 105.04317 | 3377 ft | 199 kts | 349° |
| 2026-04-26 13:10 | 11.56674 | 105.04046 | 3302 ft | 203 kts | 349° |
| 2026-04-26 13:11 | 11.58060 | 105.03772 | 3210 ft | 202 kts | 349° |
| 2026-04-26 13:11 | 11.59419 | 105.03504 | 3099 ft | 201 kts | 349° |
| 2026-04-26 13:11 | 11.60774 | 105.03196 | 2992 ft | 199 kts | 338° |
| 2026-04-26 13:11 | 11.61862 | 105.02346 | 2931 ft | 199 kts | 314° |
| 2026-04-26 13:12 | 11.62859 | 105.01344 | 2840 ft | 202 kts | 315° |
| 2026-04-26 13:12 | 11.63866 | 105.00353 | 2749 ft | 202 kts | 316° |
| 2026-04-26 13:12 | 11.64878 | 104.99356 | 2654 ft | 201 kts | 315° |
| 2026-04-26 13:12 | 11.65774 | 104.98275 | 2537 ft | 200 kts | 292° |
| 2026-04-26 13:13 | 11.65946 | 104.96906 | 2432 ft | 196 kts | 258° |
| 2026-04-26 13:13 | 11.65406 | 104.95658 | 2310 ft | 191 kts | 229° |
| 2026-04-26 13:13 | 11.64541 | 104.94726 | 2177 ft | 170 kts | 222° |
| 2026-04-26 13:13 | 11.63737 | 104.93915 | 2039 ft | 159 kts | 222° |
| 2026-04-26 13:14 | 11.62981 | 104.93134 | 1911 ft | 152 kts | 222° |
| 2026-04-26 13:14 | 11.62238 | 104.92360 | 1838 ft | 157 kts | 223° |
| 2026-04-26 13:14 | 11.61459 | 104.91543 | 1646 ft | 160 kts | 223° |
| 2026-04-26 13:14 | 11.60697 | 104.90744 | 1444 ft | 158 kts | 224° |
| 2026-04-26 13:15 | 11.59932 | 104.89943 | 1245 ft | 157 kts | 223° |
| 2026-04-26 13:15 | 11.59173 | 104.89146 | 1031 ft | 156 kts | 223° |
| 2026-04-26 13:15 | 11.58416 | 104.88354 | 876 ft | 158 kts | 224° |
| 2026-04-26 13:15 | 11.57903 | 104.87815 | 735 ft | 160 kts | 224° |
| 2026-04-26 13:16 | 11.57139 | 104.87002 | 559 ft | 157 kts | 224° |
| 2026-04-26 13:16 | 11.56375 | 104.86220 | 370 ft | 156 kts | 224° |
| 2026-04-26 13:16 | 11.55614 | 104.85434 | 137 ft | 157 kts | 224° |
| 2026-04-26 13:16 | 11.54888 | 104.84665 | 60 ft | 137 kts | 226° |
| 2026-04-26 13:17 | 11.54138 | 104.83878 | 55 ft | 23 kts | 239° |
| 2026-04-26 13:17 | 11.54180 | 104.83766 | 58 ft | 18 kts | 321° |
| 2026-04-26 13:18 | 11.54372 | 104.83865 | 62 ft | 17 kts | 46° |
| 2026-04-26 13:18 | 11.54451 | 104.83948 | 57 ft | 16 kts | 46° |
| 2026-04-26 13:18 | 11.54603 | 104.84108 | 57 ft | 15 kts | 46° |
| 2026-04-26 13:19 | 11.54674 | 104.84183 | 56 ft | 14 kts | 46° |
| 2026-04-26 13:19 | 11.54739 | 104.84250 | 62 ft | 14 kts | 46° |
| 2026-04-26 13:19 | 11.54800 | 104.84315 | 58 ft | 13 kts | 46° |
| 2026-04-26 13:19 | 11.54863 | 104.84381 | 59 ft | 13 kts | 46° |
| 2026-04-26 13:20 | 11.54920 | 104.84441 | 57 ft | 13 kts | 46° |
| 2026-04-26 13:20 | 11.54980 | 104.84504 | 62 ft | 12 kts | 46° |
| 2026-04-26 13:20 | 11.55035 | 104.84562 | 62 ft | 12 kts | 46° |
| 2026-04-26 13:20 | 11.55109 | 104.84589 | 61 ft | 12 kts | 6° |
| 2026-04-26 13:21 | 11.55185 | 104.84574 | 59 ft | 11 kts | 336° |
| 2026-04-26 13:21 | 11.55210 | 104.84563 | 60 ft | 0 kts | 336° |